Time;durP1;ratioP1;P1;durP2;ratioP2;P2;SDS_P1;SDS_P2;PMS_P1;PMS_P2;Temp;Humidity;BMP_temperature;BMP_pressure;BME280_temperature;BME280_humidity;BME280_pressure;Samples;Min_cycle;Max_cycle;Signal;HPM_P1;HPM_P2
2022/11/06 00:01:33;;;;;;;7.77;4.40;;;12.30;71.70;;;14.88;53.62;101381.00;4906813;29;20271;-59
2022/11/06 00:04:00;;;;;;;6.60;4.43;;;12.40;71.90;;;14.86;53.43;101385.66;4902919;29;20195;-57
2022/11/06 00:09:16;;;;;;;6.03;4.13;;;12.40;71.70;;;14.83;53.59;101380.75;4907749;29;20215;-59
2022/11/06 00:11:45;;;;;;;5.63;4.50;;;12.40;71.60;;;14.72;53.84;101379.38;4905937;29;20219;-58
2022/11/06 00:14:12;;;;;;;7.17;5.23;;;12.30;71.60;;;14.71;53.85;101374.28;4909349;29;20243;-60
2022/11/06 00:16:42;;;;;;;7.53;4.73;;;12.30;71.60;;;14.65;54.17;101373.19;4908371;29;20211;-61
2022/11/06 00:19:09;;;;;;;8.40;4.97;;;12.30;71.70;;;14.69;54.19;101357.75;4907109;29;20275;-61
2022/11/06 00:21:37;;;;;;;4.70;3.90;;;12.30;71.80;;;14.73;54.08;101354.53;4908272;29;20215;-60
2022/11/06 00:24:07;;;;;;;6.13;4.83;;;12.40;72.10;;;14.69;54.36;101355.91;4904110;29;20195;-61
2022/11/06 00:26:34;;;;;;;5.90;4.50;;;12.30;72.20;;;14.70;54.29;101344.31;4904862;29;20195;-61
2022/11/06 00:29:05;;;;;;;5.40;4.43;;;12.30;72.30;;;14.74;54.26;101340.25;4905173;29;20215;-61
2022/11/06 00:31:35;;;;;;;7.73;3.87;;;12.30;72.30;;;14.78;53.96;101340.72;4905240;29;20215;-60
2022/11/06 00:34:06;;;;;;;6.30;4.47;;;12.40;72.40;;;14.74;54.61;101329.66;4905735;29;20216;-58
2022/11/06 00:36:33;;;;;;;6.87;5.17;;;12.40;72.60;;;14.72;54.41;101336.16;4902983;29;20191;-60
2022/11/06 00:39:01;;;;;;;4.47;3.97;;;12.30;72.50;;;14.71;54.70;101329.22;4907021;29;20191;-59
2022/11/06 00:41:29;;;;;;;6.77;4.33;;;12.30;72.60;;;14.68;54.37;101340.19;4903620;29;20692;-60
2022/11/06 00:43:58;;;;;;;7.83;4.37;;;12.30;72.80;;;14.73;54.84;101343.94;4902670;29;20195;-59
2022/11/06 00:46:27;;;;;;;7.87;5.00;;;12.30;72.80;;;14.76;54.50;101342.75;4901341;29;20195;-61
2022/11/06 00:48:55;;;;;;;6.40;4.63;;;12.30;72.80;;;14.75;54.62;101341.09;4901805;29;20226;-60
2022/11/06 00:51:26;;;;;;;6.33;4.77;;;12.30;72.80;;;14.75;54.47;101336.63;4900116;29;20215;-60
2022/11/06 00:53:56;;;;;;;9.67;4.83;;;12.40;72.90;;;14.75;54.64;101331.31;4900799;29;20183;-57
2022/11/06 00:56:23;;;;;;;8.10;5.17;;;12.40;72.90;;;14.74;54.73;101323.53;4899372;29;20203;-56
2022/11/06 00:58:51;;;;;;;7.73;5.00;;;12.30;72.80;;;14.74;54.51;101319.06;4899788;29;20195;-59
2022/11/06 01:01:22;;;;;;;6.03;4.77;;;12.30;72.70;;;14.69;54.43;101315.34;4900225;29;20215;-60
2022/11/06 01:03:56;;;;;;;9.43;5.23;;;12.30;72.70;;;14.65;54.47;101322.84;4900148;29;20231;-58
2022/11/06 01:06:27;;;;;;;5.83;4.40;;;12.30;72.80;;;14.70;54.51;101323.09;4899700;29;20259;-60
2022/11/06 01:08:55;;;;;;;9.83;4.50;;;12.30;72.80;;;14.66;54.69;101321.03;4899932;29;20267;-64
2022/11/06 01:11:25;;;;;;;5.57;4.50;;;12.30;72.70;;;14.67;54.57;101317.34;4899789;29;20215;-59
2022/11/06 01:13:56;;;;;;;5.90;4.47;;;12.30;72.80;;;14.65;54.62;101317.53;4898792;29;20199;-59
2022/11/06 01:16:24;;;;;;;6.10;4.67;;;12.30;72.80;;;14.64;54.67;101318.53;4898271;29;20652;-58
2022/11/06 01:18:55;;;;;;;8.33;4.67;;;12.30;72.80;;;14.66;54.79;101311.25;4897987;29;20203;-57
2022/11/06 01:21:24;;;;;;;7.00;4.77;;;12.30;72.80;;;14.64;54.58;101318.53;4898288;29;20215;-58
2022/11/06 01:23:53;;;;;;;5.27;4.33;;;12.20;72.70;;;14.64;54.54;101313.25;4897885;29;20235;-61
2022/11/06 01:26:22;;;;;;;7.40;5.00;;;12.30;72.80;;;14.63;54.70;101308.97;4897248;29;20196;-58
2022/11/06 01:29:06;;;;;;;6.73;4.23;;;12.20;72.70;;;14.63;54.63;101306.31;4898169;29;20238;-60
2022/11/06 01:31:34;;;;;;;6.80;5.07;;;12.30;72.80;;;14.62;54.67;101309.16;4897859;29;20740;-57
2022/11/06 01:34:03;;;;;;;5.60;4.53;;;12.20;72.80;;;14.54;54.68;101302.16;4898401;29;20195;-61
2022/11/06 01:36:31;;;;;;;7.57;4.80;;;12.20;72.80;;;14.55;54.78;101303.75;4898493;29;20279;-59
2022/11/06 01:39:02;;;;;;;5.73;5.23;;;12.20;72.90;;;14.59;54.92;101299.75;4898147;29;20326;-61
2022/11/06 01:41:33;;;;;;;5.00;4.60;;;12.30;73.00;;;14.63;54.88;101316.91;4897160;29;20558;-61
2022/11/06 01:44:03;;;;;;;6.10;4.17;;;12.20;72.80;;;14.66;54.68;101311.25;4898557;29;20271;-60
2022/11/06 01:46:35;;;;;;;9.57;5.20;;;12.20;72.80;;;14.66;54.49;101308.59;4898697;29;20267;-60
2022/11/06 01:49:09;;;;;;;6.57;5.20;;;12.30;72.90;;;14.65;54.53;101309.59;4898782;29;20286;-62
2022/11/06 01:51:46;;;;;;;9.27;5.63;;;12.20;72.80;;;14.63;54.73;101306.31;4898067;29;20605;-59
2022/11/06 01:54:14;;;;;;;6.00;4.53;;;12.20;72.80;;;14.65;54.76;101308.78;4898302;29;20187;-58
2022/11/06 01:56:46;;;;;;;8.47;5.17;;;12.20;72.60;;;14.67;54.75;101302.28;4896535;29;20203;-61
2022/11/06 01:59:18;;;;;;;11.10;5.17;;;12.20;72.80;;;14.68;54.47;101298.63;4898537;29;20190;-59
2022/11/06 02:01:45;;;;;;;6.53;4.70;;;12.30;72.80;;;14.71;54.44;101298.22;4897300;29;20211;-59
2022/11/06 02:04:19;;;;;;;7.23;4.80;;;12.30;72.70;;;14.70;54.43;101293.97;4897970;29;20529;-60
2022/11/06 02:06:47;;;;;;;9.23;5.90;;;12.30;72.60;;;14.66;54.60;101295.34;4897879;29;20199;-57
2022/11/06 02:09:17;;;;;;;7.57;4.80;;;12.30;72.60;;;14.69;54.56;101284.34;4898439;29;20239;-58
2022/11/06 02:11:50;;;;;;;8.07;4.80;;;12.30;72.50;;;14.74;54.41;101289.91;4897340;29;20211;-59
2022/11/06 02:14:35;;;;;;;7.10;4.23;;;12.30;72.50;;;14.76;54.22;101281.81;4897386;29;20251;-58
2022/11/06 02:17:13;;;;;;;5.23;4.40;;;12.30;72.40;;;14.75;54.21;101286.28;4897261;29;20553;-57
2022/11/06 02:20:00;;;;;;;8.13;4.50;;;12.30;72.40;;;14.80;54.15;101288.34;4898111;29;20191;-59
2022/11/06 02:23:00;;;;;;;6.20;4.50;;;12.40;72.30;;;14.70;53.93;101286.00;4897525;29;20230;-59
2022/11/06 02:25:45;;;;;;;7.17;4.63;;;12.30;72.20;;;14.66;54.37;101274.16;4897688;29;20612;-60
2022/11/06 02:28:23;;;;;;;11.40;5.23;;;12.40;72.30;;;14.67;54.16;101265.19;4897009;29;20199;-60
2022/11/06 02:30:55;;;;;;;5.73;4.67;;;12.40;72.20;;;14.68;54.28;101266.84;4878589;29;20224;-60
2022/11/06 02:33:30;;;;;;;7.60;4.40;;;12.40;72.30;;;14.64;54.47;101265.53;4879165;29;20192;-61
2022/11/06 02:36:05;;;;;;;9.23;5.20;;;12.30;72.20;;;14.67;54.35;101259.06;4878979;29;20255;-61
2022/11/06 02:38:39;;;;;;;7.60;4.70;;;12.30;72.20;;;14.74;54.02;101255.47;4879319;29;20188;-62
2022/11/06 02:41:15;;;;;;;5.97;4.57;;;12.30;72.10;;;14.70;54.29;101253.38;4879443;29;20220;-61
2022/11/06 02:43:50;;;;;;;4.57;4.00;;;12.30;72.20;;;14.65;54.31;101243.34;4889534;29;20196;-61
2022/11/06 02:46:25;;;;;;;5.63;4.10;;;12.30;72.10;;;14.69;53.82;101244.59;4900655;29;20199;-59
2022/11/06 02:49:01;;;;;;;5.13;4.43;;;12.30;72.00;;;14.64;54.26;101236.41;4901105;29;20195;-62
2022/11/06 02:51:30;;;;;;;6.27;4.93;;;12.40;72.10;;;14.61;54.38;101238.63;4900708;29;20287;-59
2022/11/06 02:54:04;;;;;;;7.90;4.43;;;12.30;72.00;;;14.65;54.40;101240.72;4900762;29;20199;-59
2022/11/06 02:56:37;;;;;;;6.33;4.20;;;12.30;71.90;;;14.72;54.08;101240.75;4900565;29;20251;-61
2022/11/06 02:59:13;;;;;;;7.77;4.73;;;12.30;71.90;;;14.68;54.19;101239.50;4900997;29;20529;-59
2022/11/06 03:01:45;;;;;;;4.23;3.87;;;12.40;72.00;;;14.67;54.15;101243.97;4900428;29;20218;-59
2022/11/06 03:04:29;;;;;;;6.57;4.57;;;12.30;71.90;;;14.66;54.06;101236.22;4900412;29;20199;-61
2022/11/06 03:07:04;;;;;;;8.10;5.20;;;12.40;71.90;;;14.53;54.43;101228.13;4901113;29;20267;-59
2022/11/06 03:09:32;;;;;;;8.70;5.10;;;12.30;71.90;;;14.60;54.30;101219.25;4900590;29;20266;-60
2022/11/06 03:12:12;;;;;;;7.73;4.63;;;12.30;71.80;;;14.57;54.33;101227.56;4900200;29;20219;-60
2022/11/06 03:14:53;;;;;;;6.50;4.50;;;12.30;71.80;;;14.49;54.44;101227.72;4900661;29;20187;-59
2022/11/06 03:17:30;;;;;;;5.50;4.20;;;12.30;72.00;;;14.56;54.21;101219.81;4899955;29;20199;-60
2022/11/06 03:20:08;;;;;;;6.00;4.17;;;12.30;71.90;;;14.63;54.18;101221.53;4900402;29;20247;-59
2022/11/06 03:22:45;;;;;;;6.87;4.57;;;12.40;71.90;;;14.59;53.91;101214.97;4900196;29;20230;-62
2022/11/06 03:25:19;;;;;;;7.80;4.23;;;12.30;71.80;;;14.65;54.09;101216.03;4899329;29;20235;-59
2022/11/06 03:27:57;;;;;;;5.60;3.90;;;12.30;71.80;;;14.68;53.81;101219.13;4900803;29;20186;-58
2022/11/06 03:30:26;;;;;;;7.30;3.83;;;12.30;71.70;;;14.64;54.14;101207.25;4900534;29;20262;-59
2022/11/06 03:33:01;;;;;;;9.63;4.43;;;12.30;71.70;;;14.65;54.12;101213.38;4900224;29;20226;-61
2022/11/06 03:35:37;;;;;;;6.33;4.43;;;12.30;71.70;;;14.73;53.62;101221.22;4901531;29;20247;-61
2022/11/06 03:38:12;;;;;;;6.20;4.13;;;12.30;71.70;;;14.74;53.75;101225.50;4901503;29;20207;-60
2022/11/06 03:40:46;;;;;;;7.27;4.67;;;12.40;71.70;;;14.73;53.97;101227.34;4905907;29;20217;-61
2022/11/06 03:43:19;;;;;;;5.87;4.13;;;12.30;71.60;;;14.74;53.65;101228.97;4900841;29;20195;-59
2022/11/06 03:45:52;;;;;;;5.87;4.63;;;12.40;71.60;;;14.75;53.63;101225.31;4900072;29;20291;-60
2022/11/06 03:48:29;;;;;;;7.10;4.30;;;12.30;71.60;;;14.74;53.29;101221.03;4899553;29;20207;-61
2022/11/06 03:51:05;;;;;;;8.77;5.90;;;12.30;71.50;;;14.63;53.95;101232.13;4899583;29;20223;-60
2022/11/06 03:53:42;;;;;;;6.30;4.63;;;12.30;71.60;;;14.58;54.14;101223.94;4898886;29;20202;-61
2022/11/06 03:56:24;;;;;;;7.80;4.67;;;12.30;71.80;;;14.56;53.92;101223.28;4899067;29;20235;-61
2022/11/06 03:58:54;;;;;;;6.60;3.87;;;12.20;71.60;;;14.51;54.14;101220.38;4899897;29;20191;-59
2022/11/06 04:01:30;;;;;;;5.80;4.13;;;12.20;71.80;;;14.45;54.47;101229.09;4899460;29;20226;-60
2022/11/06 04:04:03;;;;;;;4.57;4.07;;;12.20;71.90;;;14.41;54.46;101222.50;4899265;29;20201;-62
2022/11/06 04:06:38;;;;;;;5.90;3.80;;;12.20;72.10;;;14.34;54.29;101218.97;4899294;29;20203;-59
2022/11/06 04:14:57;;;;;;;7.97;4.13;;;12.10;72.40;;;14.23;55.28;101224.72;4898991;29;20255;-62
2022/11/06 04:17:28;;;;;;;5.77;4.00;;;12.00;72.40;;;14.30;54.75;101225.66;4898658;29;20211;-59
2022/11/06 04:20:09;;;;;;;7.03;4.20;;;12.00;72.40;;;14.24;54.79;101226.34;4899200;29;20199;-60
2022/11/06 04:22:53;;;;;;;6.13;4.20;;;12.00;72.50;;;14.24;54.85;101237.78;4880187;29;20326;-60
2022/11/06 04:28:33;;;;;;;5.67;4.20;;;12.00;72.80;;;14.23;54.89;101230.03;4880523;29;20560;-59
2022/11/06 04:31:10;;;;;;;8.67;4.63;;;11.90;72.80;;;14.24;55.00;101236.94;4880195;29;20772;-60
2022/11/06 04:33:50;;;;;;;6.40;3.93;;;11.90;72.70;;;14.28;54.82;101232.94;4880269;29;20728;-60
2022/11/06 04:36:30;;;;;;;6.33;4.20;;;11.90;72.70;;;14.27;54.72;101231.28;4880176;29;20288;-59
2022/11/06 04:39:05;;;;;;;4.60;4.00;;;11.90;72.80;;;14.33;54.68;101225.28;4879887;29;20196;-59
2022/11/06 04:41:41;;;;;;;6.53;4.57;;;11.90;72.70;;;14.19;54.93;101232.22;4879781;29;20271;-60
2022/11/06 04:44:14;;;;;;;6.90;4.87;;;11.90;72.90;;;14.21;55.17;101227.56;4879907;29;20235;-61
2022/11/06 04:46:49;;;;;;;7.10;4.20;;;11.90;72.90;;;14.23;54.93;101230.84;4895343;29;20191;-60
2022/11/06 04:49:19;;;;;;;5.53;4.10;;;11.90;72.80;;;14.27;54.89;101233.94;4899868;29;20613;-61
2022/11/06 04:51:47;;;;;;;6.57;3.93;;;11.90;72.80;;;14.30;54.68;101228.31;4899218;29;20716;-60
2022/11/06 04:54:15;;;;;;;6.17;4.07;;;11.90;72.70;;;14.31;54.70;101224.63;4898714;29;20196;-60
2022/11/06 04:56:42;;;;;;;4.33;3.80;;;11.90;72.70;;;14.32;54.76;101222.81;4897989;29;20199;-58
2022/11/06 04:59:16;;;;;;;6.50;3.97;;;11.90;72.60;;;14.30;54.80;101223.00;4898564;29;20495;-61
2022/11/06 05:01:45;;;;;;;6.50;3.97;;;11.90;72.50;;;14.36;54.57;101219.59;4898220;29;20286;-60
2022/11/06 05:04:12;;;;;;;4.13;3.47;;;11.90;72.50;;;14.38;54.36;101220.22;4897888;29;20293;-60
2022/11/06 05:06:40;;;;;;;6.90;3.90;;;12.00;72.60;;;14.37;54.57;101226.56;4898443;29;20203;-60
2022/11/06 05:09:07;;;;;;;6.40;3.70;;;11.90;72.40;;;14.37;54.54;101220.44;4898282;29;20255;-60
2022/11/06 05:11:34;;;;;;;5.90;3.80;;;12.00;72.60;;;14.31;54.71;101224.63;4897761;29;20282;-60
2022/11/06 05:14:01;;;;;;;5.43;4.00;;;11.90;72.70;;;14.39;54.64;101223.72;4898386;29;20661;-61
2022/11/06 05:16:29;;;;;;;6.73;3.53;;;12.00;72.80;;;14.39;54.77;101218.41;4898163;29;20227;-59
2022/11/06 05:18:56;;;;;;;6.23;3.67;;;12.00;73.60;;;14.38;54.62;101212.28;4898543;29;20657;-60
2022/11/06 05:24:10;;;;;;;6.87;3.70;;;12.00;72.70;;;14.36;54.78;101218.81;4898687;29;20625;-61
2022/11/06 05:26:37;;;;;;;7.60;3.90;;;12.00;72.70;;;14.40;54.59;101210.28;4898001;29;20203;-58
2022/11/06 05:29:04;;;;;;;6.23;3.50;;;12.00;72.70;;;14.40;54.37;101215.59;4898070;29;20605;-60
2022/11/06 05:31:31;;;;;;;5.23;3.50;;;12.00;72.70;;;14.41;54.47;101216.38;4897287;29;20283;-60
2022/11/06 05:33:58;;;;;;;7.33;4.07;;;12.00;72.60;;;14.47;54.46;101216.47;4898063;29;20207;-60
2022/11/06 05:36:25;;;;;;;10.57;4.20;;;12.00;72.60;;;14.49;54.20;101213.63;4898018;29;20227;-60
2022/11/06 05:38:52;;;;;;;5.07;3.33;;;12.00;72.60;;;14.54;54.11;101216.53;4898252;29;20199;-61
2022/11/06 05:41:21;;;;;;;5.57;3.50;;;12.00;72.50;;;14.56;53.95;101214.53;4898087;29;20214;-60
2022/11/06 05:43:48;;;;;;;5.27;3.43;;;12.10;72.50;;;14.56;54.09;101215.34;4898140;29;20239;-61
2022/11/06 05:46:15;;;;;;;5.27;3.60;;;12.00;72.50;;;14.49;54.68;101214.47;4898127;29;20672;-61
2022/11/06 05:49:02;;;;;;;5.60;3.67;;;12.10;72.90;;;14.49;54.68;101209.16;4898451;29;20605;-59
2022/11/06 05:51:29;;;;;;;5.97;3.70;;;12.10;72.90;;;14.50;55.05;101216.09;4897152;29;20278;-59
2022/11/06 05:53:56;;;;;;;8.67;3.60;;;12.00;73.10;;;14.42;55.17;101205.63;4897730;29;20207;-59
2022/11/06 05:56:24;;;;;;;6.07;3.87;;;12.00;73.40;;;14.40;55.10;101205.00;4897115;29;20256;-61
2022/11/06 05:58:51;;;;;;;4.90;3.53;;;12.00;73.20;;;14.44;54.93;101200.13;4897797;29;20226;-59
2022/11/06 06:01:18;;;;;;;8.60;4.10;;;12.00;73.30;;;14.40;54.99;101205.00;4879069;29;20220;-59
2022/11/06 06:03:45;;;;;;;5.80;3.60;;;11.90;73.30;;;14.36;55.00;101209.00;4879387;29;20200;-59
2022/11/06 06:06:12;;;;;;;7.00;3.23;;;11.90;73.40;;;14.33;55.13;101209.41;4882985;29;20600;-59
2022/11/06 06:08:39;;;;;;;7.87;3.47;;;11.90;73.50;;;14.30;55.27;101208.91;4897928;29;20203;-59
2022/11/06 06:11:07;;;;;;;6.57;3.53;;;11.90;73.40;;;14.25;55.36;101205.00;4878843;29;20227;-58
2022/11/06 06:13:36;;;;;;;5.13;2.97;;;11.90;73.50;;;14.31;55.14;101206.09;4897801;29;20604;-61
2022/11/06 06:16:04;;;;;;;4.57;3.10;;;11.90;73.50;;;14.35;55.01;101194.16;4897233;29;20251;-60
2022/11/06 06:18:31;;;;;;;5.83;3.53;;;11.90;73.50;;;14.31;55.19;101194.72;4901798;29;20342;-61
2022/11/06 06:20:58;;;;;;;4.63;3.10;;;11.90;73.50;;;14.36;55.13;101193.13;4901365;29;20227;-61
2022/11/06 06:23:25;;;;;;;6.93;3.93;;;11.90;73.50;;;14.39;54.98;101181.34;4901222;29;20199;-60
2022/11/06 06:25:52;;;;;;;4.47;3.40;;;11.90;73.40;;;14.33;55.13;101182.94;4900207;29;20880;-60
2022/11/06 06:28:19;;;;;;;5.93;3.00;;;11.90;73.30;;;14.27;54.98;101175.69;4901695;29;20263;-60
2022/11/06 06:30:48;;;;;;;5.67;3.10;;;11.90;73.30;;;14.27;55.00;101171.22;4901056;29;20292;-60
2022/11/06 06:33:15;;;;;;;5.93;3.37;;;11.90;73.20;;;14.23;55.22;101171.78;4900996;29;20583;-60
2022/11/06 06:35:42;;;;;;;4.87;3.00;;;11.90;73.20;;;14.31;55.09;101174.31;4901604;29;20195;-59
2022/11/06 06:38:09;;;;;;;5.33;3.03;;;11.90;73.20;;;14.35;55.08;101175.59;4901863;29;20199;-61
2022/11/06 06:40:36;;;;;;;7.60;3.30;;;11.90;73.20;;;14.36;55.01;101174.59;4900777;29;20199;-58
2022/11/06 06:43:03;;;;;;;5.70;3.20;;;11.90;73.10;;;14.38;54.60;101164.63;4901446;29;20220;-60
2022/11/06 06:45:30;;;;;;;3.70;2.57;;;12.00;73.00;;;14.40;54.83;101159.97;4900914;29;20310;-59
2022/11/06 06:48:02;;;;;;;7.00;3.33;;;12.00;73.00;;;14.42;54.45;101171.19;4901453;29;20195;-60
2022/11/06 06:50:29;;;;;;;9.07;3.10;;;12.00;72.90;;;14.43;54.65;101166.72;4901044;29;20591;-61
2022/11/06 06:52:57;;;;;;;4.33;2.80;;;12.00;72.80;;;14.44;54.38;101179.78;4901335;29;20200;-61
2022/11/06 06:55:25;;;;;;;3.90;2.77;;;12.00;72.70;;;14.44;54.54;101182.41;4901438;29;20279;-60
2022/11/06 06:57:56;;;;;;;4.53;2.67;;;12.00;72.60;;;14.46;54.42;101179.56;4901670;29;20195;-60
2022/11/06 07:00:25;;;;;;;4.80;3.00;;;12.00;72.60;;;14.45;54.50;101192.03;4900650;29;20204;-57
2022/11/06 07:02:52;;;;;;;3.57;2.50;;;12.00;72.50;;;14.49;54.04;101172.09;4900738;29;20692;-59
2022/11/06 07:05:20;;;;;;;4.90;2.77;;;12.10;72.40;;;14.50;54.14;101186.94;4900819;29;20608;-60
2022/11/06 07:07:47;;;;;;;3.57;2.83;;;12.00;72.30;;;14.48;54.22;101188.16;4900668;29;20267;-60
2022/11/06 07:10:15;;;;;;;5.33;2.70;;;12.00;72.30;;;14.52;54.24;101181.47;4900962;29;20588;-59
2022/11/06 07:12:42;;;;;;;4.50;3.13;;;12.10;72.30;;;14.60;54.01;101182.16;4899371;29;20227;-59
2022/11/06 07:15:10;;;;;;;6.23;2.80;;;12.10;72.20;;;14.60;53.72;101184.81;4900518;29;20203;-61
2022/11/06 07:17:37;;;;;;;6.97;2.97;;;12.10;72.20;;;14.59;53.95;101188.50;4884209;29;20587;-61
2022/11/06 07:20:06;;;;;;;5.80;2.43;;;12.10;72.10;;;14.59;53.63;101193.78;4881996;29;20252;-60
2022/11/06 07:22:34;;;;;;;6.50;2.93;;;12.10;72.00;;;14.59;53.77;101188.50;4897105;29;20695;-61
2022/11/06 07:25:05;;;;;;;4.13;2.87;;;12.10;72.00;;;14.56;53.89;101188.03;4901410;29;20223;-60
2022/11/06 07:27:32;;;;;;;4.77;2.47;;;12.10;72.00;;;14.53;53.83;101189.22;4902462;29;20263;-58
2022/11/06 07:29:59;;;;;;;5.27;2.90;;;12.10;72.00;;;14.54;54.13;101190.88;4906850;29;20207;-61
2022/11/06 07:32:27;;;;;;;5.13;2.90;;;12.10;72.10;;;14.58;54.15;101205.38;4902140;29;20315;-60
2022/11/06 07:34:54;;;;;;;3.87;2.80;;;12.10;72.60;;;14.53;54.48;101199.81;4900435;29;20585;-60
2022/11/06 07:37:21;;;;;;;3.17;2.53;;;12.10;72.80;;;14.53;54.50;101204.28;4900142;29;20207;-60
2022/11/06 07:39:50;;;;;;;3.80;2.90;;;12.10;73.00;;;14.58;54.61;101213.31;4900432;29;20199;-57
2022/11/06 07:42:17;;;;;;;5.83;2.47;;;12.10;73.20;;;14.58;54.67;101205.38;4899456;29;20697;-60
2022/11/06 07:44:44;;;;;;;5.43;2.90;;;12.10;73.10;;;14.56;54.92;101212.69;4900188;29;20203;-62
2022/11/06 07:47:11;;;;;;;3.00;2.63;;;12.00;73.20;;;14.56;54.74;101204.75;4900033;29;20195;-60
2022/11/06 07:49:38;;;;;;;5.47;2.47;;;12.10;73.20;;;14.67;54.56;101206.06;4900019;29;20211;-57
2022/11/06 07:52:05;;;;;;;5.03;2.90;;;12.10;73.10;;;14.68;54.20;101197.13;4900010;29;20703;-59
2022/11/06 07:54:32;;;;;;;4.67;2.83;;;12.10;73.10;;;14.61;54.37;101199.72;4900188;29;20267;-58
2022/11/06 07:57:00;;;;;;;4.40;2.70;;;12.10;73.00;;;14.62;54.35;101190.75;4899249;29;20207;-60
2022/11/06 07:59:27;;;;;;;3.80;2.33;;;12.10;72.90;;;14.51;54.34;101203.66;4899842;29;20682;-60
2022/11/06 08:01:54;;;;;;;3.70;2.43;;;12.10;72.80;;;14.52;54.48;101200.84;4888714;29;20216;-60
2022/11/06 08:04:21;;;;;;;4.53;2.50;;;12.10;72.80;;;14.46;54.65;101190.16;4898112;29;20222;-59
2022/11/06 08:06:48;;;;;;;5.27;2.70;;;12.10;72.90;;;14.51;54.36;101204.50;4899782;29;20199;-59
2022/11/06 08:09:15;;;;;;;7.53;2.80;;;12.10;72.80;;;14.48;54.61;101186.31;4899759;29;20195;-61
2022/11/06 08:11:42;;;;;;;2.67;1.97;;;12.10;72.80;;;14.48;54.54;101183.66;4899561;29;20274;-57
2022/11/06 08:14:11;;;;;;;3.80;2.27;;;12.10;73.60;;;14.57;54.33;101179.88;4899403;29;20262;-59
2022/11/06 08:16:38;;;;;;;4.20;2.70;;;12.10;72.80;;;14.61;54.49;101186.47;4899518;29;20195;-58
2022/11/06 08:19:05;;;;;;;4.60;2.30;;;12.10;72.70;;;14.68;54.31;101183.88;4898892;29;20275;-59
2022/11/06 08:21:33;;;;;;;5.43;2.50;;;12.20;72.60;;;14.72;54.15;101183.28;4898945;29;20211;-60
2022/11/06 08:24:00;;;;;;;5.60;2.80;;;12.20;72.50;;;14.77;53.97;101186.19;4898978;29;20672;-59
2022/11/06 08:26:27;;;;;;;7.73;2.70;;;12.30;72.60;;;14.75;54.28;101185.56;4889831;29;20262;-60
2022/11/06 08:28:54;;;;;;;4.50;2.50;;;12.30;72.40;;;14.77;54.62;101186.19;4880970;29;20192;-60
2022/11/06 08:31:22;;;;;;;3.13;2.67;;;12.30;72.30;;;14.85;54.07;101182.59;4890673;29;20223;-58
2022/11/06 08:33:50;;;;;;;4.27;2.60;;;12.40;72.40;;;14.96;53.73;101189.19;4899081;29;20207;-58
2022/11/06 08:36:17;;;;;;;6.87;2.70;;;12.40;72.30;;;14.96;53.51;101175.94;4899004;29;20220;-61
2022/11/06 08:38:46;;;;;;;3.93;2.50;;;12.40;72.10;;;14.89;53.76;101189.97;4898725;29;20221;-59
2022/11/06 08:41:13;;;;;;;4.20;2.53;;;12.40;72.00;;;14.99;53.50;101175.56;4898499;29;20696;-62
2022/11/06 08:43:40;;;;;;;3.23;2.43;;;12.50;72.00;;;14.99;54.00;101172.91;4898832;29;20247;-61
2022/11/06 08:46:09;;;;;;;4.57;2.50;;;12.50;72.10;;;15.08;53.50;101172.56;4894449;29;20701;-59
2022/11/06 08:48:37;;;;;;;5.03;2.43;;;12.60;72.10;;;15.14;53.58;101173.66;4887909;29;20203;-58
2022/11/06 08:51:05;;;;;;;5.13;2.70;;;12.60;71.90;;;15.24;53.14;101160.84;4898086;29;20215;-59
2022/11/06 08:53:41;;;;;;;5.87;2.37;;;12.70;71.80;;;15.26;53.08;101148.22;4898769;29;20191;-63
2022/11/06 08:56:08;;;;;;;6.63;2.60;;;12.70;71.60;;;15.33;53.09;101157.03;4898199;29;20184;-60
2022/11/06 08:58:36;;;;;;;7.17;2.60;;;12.80;71.50;;;15.44;52.94;101149.38;4898341;29;20199;-59
2022/11/06 09:01:03;;;;;;;5.57;2.13;;;12.90;71.40;;;15.46;52.83;101149.19;4898015;29;20279;-60
2022/11/06 09:03:30;;;;;;;4.53;2.10;;;12.90;71.20;;;15.58;52.61;101142.31;4898275;29;20258;-60
2022/11/06 09:05:58;;;;;;;3.70;2.43;;;13.00;71.00;;;15.67;52.39;101146.41;4898134;29;20219;-62
2022/11/06 09:08:25;;;;;;;3.73;2.20;;;13.10;70.90;;;15.82;51.94;101136.50;4898339;29;20199;-60
2022/11/06 09:10:52;;;;;;;3.67;2.00;;;13.20;70.50;;;15.98;51.77;101138.78;4898180;29;20270;-59
2022/11/06 09:13:25;;;;;;;3.70;1.90;;;13.30;70.30;;;16.06;51.35;101138.63;4898079;29;20699;-60
2022/11/06 09:15:52;;;;;;;5.47;2.40;;;13.40;70.10;;;16.09;51.00;101132.09;4895146;29;20215;-62
2022/11/06 09:18:19;;;;;;;4.80;2.10;;;13.50;69.50;;;16.06;51.07;101133.31;4891864;29;20223;-58
2022/11/06 09:20:46;;;;;;;6.07;2.37;;;13.40;69.30;;;16.09;51.13;101124.91;4896000;29;20243;-59
2022/11/06 09:23:14;;;;;;;3.50;1.83;;;13.50;69.30;;;16.21;50.92;101128.63;4896338;29;20330;-59
2022/11/06 09:25:42;;;;;;;2.83;1.77;;;13.60;70.10;;;16.38;50.58;101121.09;4896352;29;20291;-60
2022/11/06 09:28:10;;;;;;;3.30;2.10;;;13.70;69.30;;;16.54;50.24;101106.63;4898239;29;20214;-58
2022/11/06 09:30:38;;;;;;;2.50;1.93;;;13.70;68.90;;;16.55;49.94;101110.91;4895851;29;20207;-60
2022/11/06 09:33:05;;;;;;;2.97;2.00;;;13.80;68.50;;;16.50;50.43;101108.84;4896905;29;20326;-61
2022/11/06 09:35:39;;;;;;;9.30;2.37;;;13.90;68.30;;;16.54;50.07;101117.25;4897255;29;20598;-61
2022/11/06 09:38:10;;;;;;;3.70;1.77;;;14.00;67.80;;;16.66;49.69;101111.09;4897491;29;20200;-60
2022/11/06 09:40:50;;;;;;;4.60;1.90;;;14.10;67.30;;;16.74;49.22;101115.41;4897267;29;20659;-61
2022/11/06 09:43:30;;;;;;;4.50;1.83;;;14.20;67.00;;;16.82;49.29;101112.56;4897158;29;20215;-62
2022/11/06 09:46:23;;;;;;;2.33;1.93;;;14.30;66.70;;;16.84;49.17;101107.84;4897212;29;20675;-60
2022/11/06 09:48:57;;;;;;;7.80;2.00;;;14.40;66.40;;;16.85;49.01;101106.81;4897464;29;20187;-61
2022/11/06 09:51:35;;;;;;;3.87;2.07;;;14.50;66.90;;;16.85;48.87;101126.22;4898040;29;20226;-62
2022/11/06 09:54:13;;;;;;;3.33;1.80;;;14.50;65.80;;;16.88;49.19;101123.16;4901536;29;20555;-60
2022/11/06 09:56:46;;;;;;;5.40;1.67;;;14.60;66.00;;;17.09;48.60;101127.44;4901113;29;20203;-58
2022/11/06 09:59:19;;;;;;;5.17;1.50;;;14.70;65.70;;;17.38;48.45;101126.97;4900046;29;20207;-61
2022/11/06 10:01:56;;;;;;;4.10;1.97;;;14.80;66.00;;;17.63;47.79;101120.97;4900766;29;20569;-59
2022/11/06 10:04:40;;;;;;;3.57;1.80;;;14.90;65.60;;;17.96;46.71;101138.44;4896345;29;20192;-61
2022/11/06 10:07:24;;;;;;;3.97;1.93;;;15.00;64.70;;;18.23;45.62;101131.13;4887754;29;20250;-59
2022/11/06 10:09:52;;;;;;;4.17;1.63;;;15.20;63.90;;;18.55;45.26;101131.94;4900692;29;20219;-64
2022/11/06 10:12:34;;;;;;;3.67;1.60;;;15.40;63.60;;;19.06;44.97;101126.38;4900379;29;20680;-59
2022/11/06 10:15:18;;;;;;;2.93;1.70;;;15.70;63.50;;;19.47;43.40;101126.56;4901290;29;20199;-61
2022/11/06 10:17:55;;;;;;;2.67;1.87;;;16.00;62.40;;;19.53;43.19;101112.34;4901157;29;20180;-60
2022/11/06 10:20:30;;;;;;;3.23;1.77;;;16.30;61.20;;;19.40;43.44;101093.78;4900811;29;20195;-59
2022/11/06 10:23:09;;;;;;;5.57;1.73;;;16.40;60.20;;;19.21;43.31;101076.09;4901164;29;20243;-60
2022/11/06 10:25:50;;;;;;;3.20;1.53;;;16.50;59.80;;;18.90;44.21;101080.53;4882611;29;20737;-60
2022/11/06 10:28:55;;;;;;;3.57;1.80;;;16.40;60.10;;;18.77;44.50;101078.00;4882861;29;20331;-59
2022/11/06 10:31:36;;;;;;;2.07;1.60;;;16.40;60.40;;;18.60;44.99;101062.78;4865612;29;20541;-61
2022/11/06 10:34:12;;;;;;;3.23;1.60;;;16.30;60.50;;;18.57;45.38;101069.38;4900880;29;20215;-62
2022/11/06 10:36:46;;;;;;;4.90;1.73;;;16.20;60.70;;;18.62;45.39;101048.19;4901422;29;20196;-60
2022/11/06 10:39:22;;;;;;;2.47;1.50;;;16.20;61.00;;;18.58;45.47;101049.69;4901211;29;20202;-61
2022/11/06 10:41:56;;;;;;;2.07;1.30;;;16.20;61.20;;;18.62;45.17;101061.53;4895472;29;20215;-59
2022/11/06 10:44:35;;;;;;;2.67;1.70;;;16.20;61.30;;;18.53;45.47;101073.50;4901412;29;20195;-61